Saint Paul, MN (55104)

3:50 PM CST on March 06, 2015 (GMT -0600)
Blair Manor, Midway | Change Station
CLOSE
Current Station
Personal Weather Station
Location: St Paul, MN
Elevation: 928 ft
Nearby Weather Stations

Elev 928 ft 44.96 °N, 93.17 °W | Updated 29 seconds ago

Clear
Clear
35.8 °F
Feels Like 33 °F
N
3.8
Wind Variable Wind from WSW
Gusts 3.8 mph

Today
High -- | Low -- °F
--% Chance of Precip.
Yesterday
High -- | Low -- °F
Precip. -- in
6:41 AM 6:06 PM
Full, 99% visible
Pressure 30.04 in
Visibility 10.0 miles
Clouds Clear
Windchill 33 °F
Dew Point 14 °F
Humidity 41%
Rainfall in
Snow Depth Not available.
UV 3 out of 12
Pollen .20 out of 12
Air Quality Not available.
Flu Activity Not available.
METAR KSTP 062053Z 29012KT 10SM CLR 03/M09 A3004

More Conditions Fewer Conditions

Pressure 30.04 in
Visibility 10.0 miles
Clouds Clear
Windchill 33 °F
Dew Point 14 °F
Humidity 41%
Rainfall in
Snow Depth Not available.
UV 3 out of 12
Pollen .20 out of 12
Air Quality Not available.
Flu Activity Not available.
METAR KSTP 062053Z 29012KT 10SM CLR 03/M09 A3004

More Conditions Fewer Conditions

10-Day Weather Forecast

Almanac

Astronomy

Mar. 06, 2015 Rise Set
Actual Time
Civil Twilight
Nautical Twilight
Astronomical Twilight
Moon
Length of Visible Light
Length of Day
Tomorrow will be .
, % of the Moon is Illuminated

Today's Extremes

State Highs State Lows

Community

WunderPhotos

Upload Photos

1,803,406 photos uploaded!

WunderBlogs® & News

Nearby

Air Quality

  Air Quality AQ Index Pollutant
Not available.

Snow Depth

Station Depth Elevation

Earthquake Activity

City Distance Mag. Time & Date
Minimum magnitude displayed is 2.5.

Coastal Water Temperatures

Place Temperature

Nearby Weather Stations